createdAt,value
2018-03-31T00:00:34.704Z,0.00
2018-03-31T00:01:34.680Z,0.00
2018-03-31T00:02:34.654Z,0.00
2018-03-31T00:03:34.629Z,0.00
2018-03-31T00:04:34.602Z,0.00
2018-03-31T00:05:34.578Z,0.00
2018-03-31T00:06:34.549Z,0.00
2018-03-31T00:07:34.522Z,0.00
2018-03-31T00:08:34.498Z,0.00
2018-03-31T00:09:34.471Z,0.00
2018-03-31T00:10:34.445Z,0.00
2018-03-31T00:11:34.420Z,0.00
2018-03-31T00:12:34.394Z,0.00
2018-03-31T00:13:34.367Z,0.00
2018-03-31T00:14:34.341Z,0.00
2018-03-31T00:15:34.315Z,0.00
2018-03-31T00:16:34.289Z,0.00
2018-03-31T00:17:34.264Z,0.00
2018-03-31T00:18:34.237Z,0.00
2018-03-31T00:19:34.211Z,0.00
2018-03-31T00:20:34.186Z,0.00
2018-03-31T00:21:34.166Z,0.00
2018-03-31T00:22:34.133Z,0.00
2018-03-31T00:23:34.106Z,0.00
2018-03-31T00:24:34.081Z,0.00
2018-03-31T00:25:34.055Z,0.00
2018-03-31T00:26:34.028Z,0.00
2018-03-31T00:27:34.002Z,0.00
2018-03-31T00:28:33.978Z,0.00
2018-03-31T00:29:33.952Z,0.00
2018-03-31T00:30:34.674Z,0.00
2018-03-31T00:31:33.899Z,0.00
2018-03-31T00:32:33.872Z,0.00
2018-03-31T00:33:33.846Z,0.00
2018-03-31T00:34:33.820Z,0.00
2018-03-31T00:35:33.794Z,0.00
2018-03-31T00:36:33.768Z,0.00
2018-03-31T00:37:33.742Z,0.00
2018-03-31T00:38:33.714Z,0.00
2018-03-31T00:39:33.687Z,0.00
2018-03-31T00:40:33.663Z,0.00
2018-03-31T00:41:33.638Z,0.00
2018-03-31T00:42:33.610Z,0.00
2018-03-31T00:43:33.582Z,0.00
2018-03-31T00:44:33.564Z,0.00
2018-03-31T00:45:33.530Z,0.00
2018-03-31T00:46:33.504Z,0.00
2018-03-31T00:47:33.478Z,0.00
2018-03-31T00:48:33.454Z,0.00
2018-03-31T00:49:33.427Z,0.00
2018-03-31T00:50:34.252Z,0.00
2018-03-31T00:51:33.375Z,0.00
2018-03-31T00:52:33.348Z,0.00
2018-03-31T00:53:33.323Z,0.00
2018-03-31T00:54:33.296Z,0.00
2018-03-31T00:55:33.269Z,0.00
2018-03-31T00:56:33.242Z,0.00
2018-03-31T00:57:33.217Z,0.00
2018-03-31T00:58:33.193Z,0.00
2018-03-31T00:59:33.164Z,0.00
2018-03-31T01:00:33.137Z,0.00
2018-03-31T01:01:33.113Z,0.00
2018-03-31T01:02:33.095Z,0.00
2018-03-31T01:03:33.058Z,0.00
2018-03-31T01:04:33.032Z,0.00
2018-03-31T01:05:33.007Z,0.00
2018-03-31T01:06:32.982Z,0.00
2018-03-31T01:07:32.954Z,0.00
2018-03-31T01:08:32.929Z,0.00
2018-03-31T01:09:32.902Z,0.00
2018-03-31T01:10:32.875Z,0.00
2018-03-31T01:11:32.848Z,0.00
2018-03-31T01:12:32.823Z,0.00
2018-03-31T01:13:32.796Z,0.00
2018-03-31T01:14:32.772Z,0.00
2018-03-31T01:15:32.744Z,0.00
2018-03-31T01:16:32.718Z,0.00
2018-03-31T01:17:32.691Z,0.00
2018-03-31T01:18:32.666Z,0.00
2018-03-31T01:19:32.637Z,0.00
2018-03-31T01:20:32.613Z,0.00
2018-03-31T01:21:32.585Z,0.00
2018-03-31T01:22:32.564Z,0.00
2018-03-31T01:23:32.532Z,0.00
2018-03-31T01:24:32.506Z,0.00
2018-03-31T01:25:32.482Z,0.00
2018-03-31T01:26:33.955Z,0.00
2018-03-31T01:27:32.426Z,0.00
2018-03-31T01:28:32.401Z,0.00
2018-03-31T01:29:32.374Z,0.00
2018-03-31T01:30:32.350Z,0.00
2018-03-31T01:31:32.324Z,0.00
2018-03-31T01:32:32.295Z,0.00
2018-03-31T01:33:32.270Z,0.00
2018-03-31T01:34:32.245Z,0.00
2018-03-31T01:35:32.216Z,0.00
2018-03-31T01:36:32.190Z,0.00
2018-03-31T01:37:32.165Z,0.00
2018-03-31T01:38:32.139Z,0.00
2018-03-31T01:39:32.111Z,0.00
2018-03-31T01:40:32.084Z,0.00
2018-03-31T01:41:32.061Z,0.00
2018-03-31T01:42:32.032Z,0.00
2018-03-31T01:43:32.006Z,0.00
2018-03-31T01:44:31.979Z,0.00
2018-03-31T01:45:31.954Z,0.00
2018-03-31T01:46:31.926Z,0.00
2018-03-31T01:47:31.900Z,0.00
2018-03-31T01:48:31.878Z,0.00
2018-03-31T01:49:31.851Z,0.00
2018-03-31T01:50:31.821Z,0.00
2018-03-31T01:51:31.795Z,0.00
2018-03-31T01:52:31.768Z,0.00
2018-03-31T01:53:31.743Z,0.00
2018-03-31T01:54:31.715Z,0.00
2018-03-31T01:55:31.690Z,0.00
2018-03-31T01:56:31.662Z,0.00
2018-03-31T01:57:31.637Z,0.00
2018-03-31T01:58:31.611Z,0.00
2018-03-31T01:59:31.582Z,0.00
2018-03-31T02:00:31.558Z,0.00
2018-03-31T02:01:31.531Z,0.00
2018-03-31T02:02:31.504Z,0.00
2018-03-31T02:03:31.477Z,0.00
2018-03-31T02:04:31.452Z,0.00
2018-03-31T02:05:31.426Z,0.00
2018-03-31T02:06:31.444Z,0.00
2018-03-31T02:07:31.373Z,0.00
2018-03-31T02:08:31.345Z,0.00
2018-03-31T02:09:31.320Z,0.00
2018-03-31T02:10:32.044Z,0.00
2018-03-31T02:11:31.268Z,0.00
2018-03-31T02:12:31.241Z,0.00
2018-03-31T02:13:31.215Z,0.00
2018-03-31T02:14:31.188Z,0.00
2018-03-31T02:15:31.162Z,0.00
2018-03-31T02:16:31.148Z,0.00
2018-03-31T02:17:31.107Z,0.00
2018-03-31T02:18:31.082Z,0.00
2018-03-31T02:19:31.061Z,0.00
2018-03-31T02:20:31.035Z,0.00
2018-03-31T02:21:31.003Z,0.00
2018-03-31T02:22:30.975Z,0.00
2018-03-31T02:23:30.949Z,0.00
2018-03-31T02:24:30.922Z,0.00
2018-03-31T02:25:30.896Z,0.00
2018-03-31T02:26:30.869Z,0.00
2018-03-31T02:27:30.843Z,0.00
2018-03-31T02:28:30.816Z,0.00
2018-03-31T02:29:30.791Z,0.00
2018-03-31T02:30:30.763Z,0.00
2018-03-31T02:31:30.737Z,0.00
2018-03-31T02:32:30.711Z,0.00
2018-03-31T02:33:30.683Z,0.00
2018-03-31T02:34:30.657Z,0.00
2018-03-31T02:35:30.630Z,0.00
2018-03-31T02:36:32.856Z,0.00
2018-03-31T02:37:30.576Z,0.00
2018-03-31T02:38:30.553Z,0.00
2018-03-31T02:39:30.524Z,0.00
2018-03-31T02:40:30.497Z,0.00
2018-03-31T02:41:30.471Z,0.00
2018-03-31T02:42:30.446Z,0.00
2018-03-31T02:43:30.423Z,0.00
2018-03-31T02:44:30.391Z,0.00
2018-03-31T02:45:30.366Z,0.00
2018-03-31T02:46:30.338Z,0.00
2018-03-31T02:47:30.311Z,0.00
2018-03-31T02:48:30.284Z,0.00
2018-03-31T02:49:30.259Z,0.00
2018-03-31T02:50:30.242Z,0.00
2018-03-31T02:51:30.204Z,0.00
2018-03-31T02:52:30.181Z,0.00
2018-03-31T02:53:30.151Z,0.00
2018-03-31T02:54:30.125Z,0.00
2018-03-31T02:55:30.098Z,0.00
2018-03-31T02:56:30.072Z,0.00
2018-03-31T02:57:30.047Z,0.00
2018-03-31T02:58:30.022Z,0.00
2018-03-31T02:59:29.992Z,0.00
2018-03-31T03:00:29.966Z,0.00
2018-03-31T03:01:29.939Z,0.00
2018-03-31T03:02:29.914Z,0.00
2018-03-31T03:03:29.885Z,0.00
2018-03-31T03:04:29.862Z,0.00
2018-03-31T03:05:29.834Z,0.00
2018-03-31T03:06:29.809Z,0.00
2018-03-31T03:07:29.779Z,0.00
2018-03-31T03:08:29.753Z,0.00
2018-03-31T03:09:29.727Z,0.00
2018-03-31T03:10:29.700Z,0.00
2018-03-31T03:11:29.673Z,0.00
2018-03-31T03:12:29.647Z,0.00
2018-03-31T03:13:29.621Z,0.00
2018-03-31T03:14:31.096Z,0.00
2018-03-31T03:15:29.568Z,0.00
2018-03-31T03:16:29.539Z,0.00
2018-03-31T03:17:29.512Z,0.00
2018-03-31T03:18:29.487Z,0.00
2018-03-31T03:19:29.463Z,0.00
2018-03-31T03:20:29.433Z,0.00
2018-03-31T03:21:29.406Z,0.00
2018-03-31T03:22:29.381Z,0.00
2018-03-31T03:23:29.353Z,0.00
2018-03-31T03:24:29.327Z,0.00
2018-03-31T03:25:29.299Z,0.00
2018-03-31T03:26:29.273Z,0.00
2018-03-31T03:27:29.247Z,0.00
2018-03-31T03:28:29.222Z,0.00
2018-03-31T03:29:29.194Z,0.00
2018-03-31T03:30:29.167Z,0.00
2018-03-31T03:31:29.140Z,0.00
2018-03-31T03:32:29.112Z,0.00
2018-03-31T03:33:29.085Z,0.00
2018-03-31T03:34:29.059Z,0.00
2018-03-31T03:35:29.033Z,0.00
2018-03-31T03:36:29.006Z,0.00
2018-03-31T03:37:28.979Z,0.00
2018-03-31T03:38:28.959Z,0.00
2018-03-31T03:39:28.925Z,0.00
2018-03-31T03:40:28.899Z,0.00
2018-03-31T03:41:28.878Z,0.00
2018-03-31T03:42:28.846Z,0.00
2018-03-31T03:43:28.819Z,0.00
2018-03-31T03:44:28.791Z,0.00
2018-03-31T03:45:28.765Z,0.00
2018-03-31T03:46:28.740Z,0.00
2018-03-31T03:47:28.711Z,0.00
2018-03-31T03:48:28.684Z,0.00
2018-03-31T03:49:28.657Z,0.00
2018-03-31T03:50:28.632Z,0.00
2018-03-31T03:51:28.604Z,0.00
2018-03-31T03:52:28.577Z,0.00
2018-03-31T03:53:28.551Z,0.00
2018-03-31T03:54:28.523Z,0.00
2018-03-31T03:55:28.497Z,0.00
2018-03-31T03:56:28.471Z,0.00
2018-03-31T03:57:28.444Z,0.00
2018-03-31T03:58:28.418Z,0.00
2018-03-31T03:59:28.391Z,0.00
2018-03-31T04:00:28.362Z,0.00
2018-03-31T04:01:28.338Z,0.00
2018-03-31T04:02:29.061Z,0.00
2018-03-31T04:03:28.284Z,0.00
2018-03-31T04:04:28.257Z,0.00
2018-03-31T04:05:28.229Z,0.00
2018-03-31T04:06:28.203Z,0.00
2018-03-31T04:07:28.181Z,0.00
2018-03-31T04:08:28.150Z,0.00
2018-03-31T04:09:28.123Z,0.00
2018-03-31T04:10:28.097Z,0.00
2018-03-31T04:11:28.069Z,0.00
2018-03-31T04:12:28.044Z,0.00
2018-03-31T04:13:28.017Z,0.00
2018-03-31T04:14:27.991Z,0.00
2018-03-31T04:15:27.962Z,0.00
2018-03-31T04:16:27.936Z,0.00
2018-03-31T04:17:27.910Z,0.00
2018-03-31T04:18:27.883Z,0.00
2018-03-31T04:19:27.856Z,0.00
2018-03-31T04:20:27.830Z,0.00
2018-03-31T04:21:27.803Z,0.00
2018-03-31T04:22:27.778Z,0.00
2018-03-31T04:23:27.750Z,0.00
2018-03-31T04:24:27.723Z,0.00
2018-03-31T04:25:27.697Z,0.00
2018-03-31T04:26:27.675Z,0.00
2018-03-31T04:27:27.643Z,0.00
2018-03-31T04:28:27.616Z,0.00
2018-03-31T04:29:27.591Z,0.00
2018-03-31T04:30:27.565Z,0.00
2018-03-31T04:31:27.537Z,0.00
2018-03-31T04:32:27.511Z,0.00
2018-03-31T04:33:28.235Z,0.00
2018-03-31T04:34:27.458Z,0.00
2018-03-31T04:35:27.430Z,0.00
2018-03-31T04:36:27.405Z,0.00
2018-03-31T04:37:27.378Z,0.00
2018-03-31T04:38:27.353Z,0.00
2018-03-31T04:39:27.327Z,0.00
2018-03-31T04:40:27.299Z,0.00
2018-03-31T04:41:27.272Z,0.00
2018-03-31T04:42:27.246Z,0.00
2018-03-31T04:43:27.220Z,0.00
2018-03-31T04:44:27.199Z,0.00
2018-03-31T04:45:27.167Z,0.00
2018-03-31T04:46:27.140Z,0.00
2018-03-31T04:47:27.114Z,0.00
2018-03-31T04:48:27.139Z,0.00
2018-03-31T04:49:27.061Z,0.00
2018-03-31T04:50:27.034Z,0.00
2018-03-31T04:51:27.008Z,0.00
2018-03-31T04:52:26.981Z,0.00
2018-03-31T04:53:26.955Z,0.00
2018-03-31T04:54:26.930Z,0.00
2018-03-31T04:55:26.901Z,0.00
2018-03-31T04:56:26.876Z,0.00
2018-03-31T04:57:26.855Z,0.00
2018-03-31T04:58:26.822Z,0.00
2018-03-31T04:59:26.795Z,0.00
2018-03-31T05:00:26.771Z,0.00
2018-03-31T05:01:26.744Z,0.00
2018-03-31T05:02:26.716Z,0.00
2018-03-31T05:03:26.694Z,0.00
2018-03-31T05:04:26.663Z,0.00
2018-03-31T05:05:26.637Z,0.00
2018-03-31T05:06:26.611Z,0.00
2018-03-31T05:07:26.583Z,0.00
2018-03-31T05:08:26.560Z,0.00
2018-03-31T05:09:26.531Z,0.00
2018-03-31T05:10:26.505Z,0.00
2018-03-31T05:11:26.479Z,0.00
2018-03-31T05:12:26.451Z,0.00
2018-03-31T05:13:26.426Z,0.00
2018-03-31T05:14:26.399Z,0.00
2018-03-31T05:15:26.371Z,0.00
2018-03-31T05:16:26.347Z,0.00
2018-03-31T05:17:26.321Z,0.00
2018-03-31T05:18:26.293Z,0.00
2018-03-31T05:19:26.266Z,0.00
2018-03-31T05:20:26.241Z,5.63
2018-03-31T05:21:26.214Z,5.63
2018-03-31T05:22:26.187Z,5.63
2018-03-31T05:23:26.160Z,5.63
2018-03-31T05:24:26.136Z,5.63
2018-03-31T05:25:26.108Z,5.63
2018-03-31T05:26:26.100Z,5.63
2018-03-31T05:27:26.060Z,5.63
2018-03-31T05:28:26.029Z,5.63
2018-03-31T05:29:26.004Z,5.63
2018-03-31T05:30:25.977Z,5.63
2018-03-31T05:31:25.949Z,5.63
2018-03-31T05:32:26.674Z,5.63
2018-03-31T05:33:25.898Z,11.25
2018-03-31T05:34:25.873Z,11.25
2018-03-31T05:35:25.846Z,11.25
2018-03-31T05:36:25.819Z,11.25
2018-03-31T05:37:25.792Z,11.25
2018-03-31T05:38:25.766Z,11.25
2018-03-31T05:39:25.740Z,11.25
2018-03-31T05:40:25.718Z,11.25
2018-03-31T05:41:25.689Z,16.88
2018-03-31T05:42:25.661Z,16.88
2018-03-31T05:43:25.634Z,16.88
2018-03-31T05:44:25.625Z,16.88
2018-03-31T05:45:25.583Z,22.50
2018-03-31T05:46:25.556Z,22.50
2018-03-31T05:47:25.532Z,22.50
2018-03-31T05:48:25.502Z,28.13
2018-03-31T05:49:25.476Z,28.13
2018-03-31T05:50:25.451Z,28.13
2018-03-31T05:51:25.424Z,28.13
2018-03-31T05:52:25.398Z,28.13
2018-03-31T05:53:25.370Z,28.13
2018-03-31T05:54:25.345Z,28.13
2018-03-31T05:55:25.319Z,28.13
2018-03-31T05:56:25.291Z,28.13
2018-03-31T05:57:25.265Z,28.13
2018-03-31T05:58:25.240Z,28.13
2018-03-31T05:59:25.212Z,28.13
2018-03-31T06:00:25.186Z,28.13
2018-03-31T06:01:25.160Z,28.13
2018-03-31T06:02:25.133Z,33.75
2018-03-31T06:03:25.108Z,33.75
2018-03-31T06:04:25.086Z,33.75
2018-03-31T06:05:25.057Z,39.38
2018-03-31T06:06:25.030Z,39.38
2018-03-31T06:07:25.002Z,39.38
2018-03-31T06:08:24.975Z,39.38
2018-03-31T06:09:24.950Z,45.00
2018-03-31T06:10:24.925Z,45.00
2018-03-31T06:11:24.949Z,45.00
2018-03-31T06:12:24.872Z,45.00
2018-03-31T06:13:24.846Z,45.00
2018-03-31T06:14:24.820Z,45.00
2018-03-31T06:15:24.793Z,45.00
2018-03-31T06:16:24.767Z,45.00
2018-03-31T06:17:24.740Z,45.00
2018-03-31T06:18:24.717Z,45.00
2018-03-31T06:19:24.699Z,45.00
2018-03-31T06:20:24.662Z,45.00
2018-03-31T06:21:24.636Z,45.00
2018-03-31T06:22:24.611Z,45.00
2018-03-31T06:23:24.583Z,45.00
2018-03-31T06:24:24.557Z,45.00
2018-03-31T06:25:24.531Z,45.00
2018-03-31T06:26:24.506Z,45.00
2018-03-31T06:27:24.478Z,39.38
2018-03-31T06:28:24.454Z,39.38
2018-03-31T06:29:24.432Z,39.38
2018-03-31T06:30:24.402Z,39.38
2018-03-31T06:31:24.376Z,39.38
2018-03-31T06:32:25.099Z,39.38
2018-03-31T06:33:24.323Z,39.38
2018-03-31T06:34:24.299Z,39.38
2018-03-31T06:35:24.271Z,39.38
2018-03-31T06:36:24.246Z,39.38
2018-03-31T06:37:24.262Z,39.38
2018-03-31T06:38:24.198Z,39.38
2018-03-31T06:39:24.166Z,39.38
2018-03-31T06:40:24.141Z,39.38
2018-03-31T06:41:24.119Z,39.38
2018-03-31T06:42:24.093Z,39.38
2018-03-31T06:43:24.063Z,39.38
2018-03-31T06:44:24.039Z,39.38
2018-03-31T06:45:24.013Z,39.38
2018-03-31T06:46:23.988Z,39.38
2018-03-31T06:47:23.958Z,39.38
2018-03-31T06:48:24.686Z,39.38
2018-03-31T06:49:23.909Z,39.38
2018-03-31T06:50:23.881Z,39.38
2018-03-31T06:51:23.864Z,39.38
2018-03-31T06:52:23.831Z,39.38
2018-03-31T06:53:23.804Z,39.38
2018-03-31T06:54:23.779Z,39.38
2018-03-31T06:55:23.752Z,39.38
2018-03-31T06:56:23.727Z,39.38
2018-03-31T06:57:23.701Z,39.38
2018-03-31T06:58:23.678Z,39.38
2018-03-31T06:59:23.648Z,39.38
2018-03-31T07:00:23.624Z,45.00
2018-03-31T07:01:23.597Z,45.00
2018-03-31T07:02:23.570Z,45.00
2018-03-31T07:03:23.545Z,45.00
2018-03-31T07:04:23.525Z,45.00
2018-03-31T07:05:23.493Z,45.00
2018-03-31T07:06:23.468Z,45.00
2018-03-31T07:07:23.440Z,50.63
2018-03-31T07:08:23.429Z,50.63
2018-03-31T07:09:23.389Z,50.63
2018-03-31T07:10:23.363Z,50.63
2018-03-31T07:11:23.337Z,50.63
2018-03-31T07:12:23.311Z,50.63
2018-03-31T07:13:23.286Z,56.25
2018-03-31T07:14:23.262Z,56.25
2018-03-31T07:15:23.235Z,56.25
2018-03-31T07:16:23.209Z,56.25
2018-03-31T07:17:23.183Z,61.88
2018-03-31T07:18:23.157Z,61.88
2018-03-31T07:19:23.129Z,61.88
2018-03-31T07:20:23.106Z,67.50
2018-03-31T07:21:23.080Z,67.50
2018-03-31T07:22:23.053Z,67.50
2018-03-31T07:23:23.028Z,67.50
2018-03-31T07:24:23.001Z,67.50
2018-03-31T07:25:22.976Z,67.50
2018-03-31T07:26:22.950Z,73.13
2018-03-31T07:27:22.923Z,73.13
2018-03-31T07:28:22.897Z,78.75
2018-03-31T07:29:22.874Z,78.75
2018-03-31T07:30:22.847Z,78.75
2018-03-31T07:31:22.820Z,78.75
2018-03-31T07:32:22.796Z,78.75
2018-03-31T07:33:22.770Z,84.38
2018-03-31T07:34:22.744Z,90.00
2018-03-31T07:35:22.722Z,90.00
2018-03-31T07:36:22.692Z,95.63
2018-03-31T07:37:22.668Z,95.63
2018-03-31T07:38:22.641Z,95.63
2018-03-31T07:39:22.615Z,101.25
2018-03-31T07:40:22.588Z,106.88
2018-03-31T07:41:22.564Z,106.88
2018-03-31T07:42:22.539Z,112.50
2018-03-31T07:43:22.514Z,112.50
2018-03-31T07:44:22.486Z,112.50
2018-03-31T07:45:22.462Z,112.50
2018-03-31T07:46:22.436Z,112.50
2018-03-31T07:47:22.417Z,118.13
2018-03-31T07:48:22.385Z,123.75
2018-03-31T07:49:22.410Z,135.00
2018-03-31T07:50:22.336Z,140.63
2018-03-31T07:51:22.308Z,146.25
2018-03-31T07:52:22.283Z,151.88
2018-03-31T07:53:22.260Z,157.50
2018-03-31T07:54:22.236Z,157.50
2018-03-31T07:55:23.714Z,157.50
2018-03-31T07:56:22.189Z,163.13
2018-03-31T07:57:22.157Z,163.13
2018-03-31T07:58:22.132Z,174.38
2018-03-31T07:59:22.110Z,180.00
2018-03-31T08:00:22.080Z,185.63
2018-03-31T08:01:22.057Z,191.25
2018-03-31T08:02:22.031Z,196.88
2018-03-31T08:03:22.004Z,202.50
2018-03-31T08:04:21.981Z,202.50
2018-03-31T08:05:21.956Z,208.13
2018-03-31T08:06:21.931Z,208.13
2018-03-31T08:07:21.904Z,208.13
2018-03-31T08:08:21.879Z,202.50
2018-03-31T08:09:21.854Z,196.88
2018-03-31T08:10:21.830Z,196.88
2018-03-31T08:11:21.804Z,202.50
2018-03-31T08:12:21.780Z,202.50
2018-03-31T08:13:21.755Z,208.13
2018-03-31T08:14:21.730Z,208.13
2018-03-31T08:15:21.704Z,202.50
2018-03-31T08:16:21.680Z,196.88
2018-03-31T08:17:21.658Z,196.88
2018-03-31T08:18:21.630Z,196.88
2018-03-31T08:19:21.605Z,196.88
2018-03-31T08:20:21.581Z,196.88
2018-03-31T08:21:21.556Z,196.88
2018-03-31T08:22:23.032Z,196.88
2018-03-31T08:23:21.506Z,202.50
2018-03-31T08:24:21.480Z,202.50
2018-03-31T08:25:21.458Z,208.13
2018-03-31T08:26:21.431Z,208.13
2018-03-31T08:27:21.408Z,202.50
2018-03-31T08:28:27.386Z,196.88
2018-03-31T08:29:21.358Z,191.25
2018-03-31T08:30:21.400Z,191.25
2018-03-31T08:31:21.306Z,185.63
2018-03-31T08:32:21.283Z,180.00
2018-03-31T08:33:21.258Z,180.00
2018-03-31T08:34:21.984Z,180.00
2018-03-31T08:35:21.208Z,185.63
2018-03-31T08:36:21.185Z,180.00
2018-03-31T08:37:21.160Z,174.38
2018-03-31T08:38:21.134Z,168.75
2018-03-31T08:39:21.110Z,168.75
2018-03-31T08:40:21.087Z,163.13
2018-03-31T08:41:21.060Z,163.13
2018-03-31T08:42:21.036Z,163.13
2018-03-31T08:43:21.010Z,157.50
2018-03-31T08:44:20.986Z,157.50
2018-03-31T08:45:20.961Z,163.13
2018-03-31T08:46:20.939Z,163.13
2018-03-31T08:47:20.910Z,163.13
2018-03-31T08:48:20.886Z,163.13
2018-03-31T08:49:20.862Z,163.13
2018-03-31T08:50:20.838Z,157.50
2018-03-31T08:51:20.812Z,151.88
2018-03-31T08:52:20.789Z,146.25
2018-03-31T08:53:20.769Z,157.50
2018-03-31T08:54:20.740Z,151.88
2018-03-31T08:55:20.713Z,146.25
2018-03-31T08:56:20.691Z,146.25
2018-03-31T08:57:20.666Z,151.88
2018-03-31T08:58:20.641Z,151.88
2018-03-31T08:59:20.615Z,151.88
2018-03-31T09:00:20.590Z,157.50
2018-03-31T09:01:23.569Z,163.13
2018-03-31T09:02:20.543Z,163.13
2018-03-31T09:03:20.517Z,168.75
2018-03-31T09:04:20.494Z,168.75
2018-03-31T09:05:20.469Z,168.75
2018-03-31T09:06:20.445Z,163.13
2018-03-31T09:07:21.173Z,163.13
2018-03-31T09:08:20.395Z,163.13
2018-03-31T09:09:20.403Z,157.50
2018-03-31T09:10:20.346Z,157.50
2018-03-31T09:11:20.320Z,151.88
2018-03-31T09:12:20.295Z,151.88
2018-03-31T09:13:20.271Z,146.25
2018-03-31T09:14:20.247Z,146.25
2018-03-31T09:15:20.222Z,146.25
2018-03-31T09:16:20.200Z,146.25
2018-03-31T09:17:20.174Z,146.25
2018-03-31T09:18:20.149Z,146.25
2018-03-31T09:19:20.122Z,151.88
2018-03-31T09:20:20.102Z,157.50
2018-03-31T09:21:20.074Z,157.50
2018-03-31T09:22:20.051Z,163.13
2018-03-31T09:23:23.028Z,163.13
2018-03-31T09:24:20.000Z,163.13
2018-03-31T09:25:19.979Z,163.13
2018-03-31T09:26:19.957Z,168.75
2018-03-31T09:27:19.926Z,174.38
2018-03-31T09:28:19.904Z,180.00
2018-03-31T09:29:22.132Z,185.63
2018-03-31T09:30:19.854Z,191.25
2018-03-31T09:31:19.830Z,196.88
2018-03-31T09:32:19.804Z,202.50
2018-03-31T09:33:19.781Z,208.13
2018-03-31T09:34:19.757Z,213.75
2018-03-31T09:35:20.483Z,219.38
2018-03-31T09:36:19.753Z,219.38
2018-03-31T09:37:19.683Z,219.38
2018-03-31T09:38:19.660Z,219.38
2018-03-31T09:39:19.634Z,213.75
2018-03-31T09:40:19.616Z,213.75
2018-03-31T09:41:19.586Z,225.00
2018-03-31T09:42:19.562Z,225.00
2018-03-31T09:43:19.540Z,230.63
2018-03-31T09:44:19.513Z,230.63
2018-03-31T09:45:19.488Z,236.25
2018-03-31T09:46:19.464Z,247.50
2018-03-31T09:47:19.439Z,247.50
2018-03-31T09:48:19.416Z,247.50
2018-03-31T09:49:19.391Z,247.50
2018-03-31T09:50:19.372Z,247.50
2018-03-31T09:51:19.344Z,247.50
2018-03-31T09:52:19.319Z,247.50
2018-03-31T09:53:19.299Z,241.88
2018-03-31T09:54:19.270Z,241.88
2018-03-31T09:55:19.247Z,241.88
2018-03-31T09:56:20.723Z,236.25
2018-03-31T09:57:19.199Z,230.63
2018-03-31T09:58:19.217Z,225.00
2018-03-31T09:59:19.150Z,219.38
2018-03-31T10:00:19.129Z,213.75
2018-03-31T10:01:19.102Z,213.75
2018-03-31T10:02:19.079Z,208.13
2018-03-31T10:03:19.055Z,208.13
2018-03-31T10:04:19.031Z,208.13
2018-03-31T10:05:19.007Z,208.13
2018-03-31T10:06:18.982Z,208.13
2018-03-31T10:07:18.959Z,202.50
2018-03-31T10:08:18.936Z,196.88
2018-03-31T10:09:18.910Z,191.25
2018-03-31T10:10:18.887Z,185.63
2018-03-31T10:11:18.863Z,185.63
2018-03-31T10:12:18.838Z,185.63
2018-03-31T10:13:18.815Z,185.63
2018-03-31T10:14:18.793Z,185.63
2018-03-31T10:15:18.769Z,185.63
2018-03-31T10:16:18.744Z,185.63
2018-03-31T10:17:18.720Z,185.63
2018-03-31T10:18:18.696Z,185.63
2018-03-31T10:19:18.675Z,185.63
2018-03-31T10:20:18.648Z,191.25
2018-03-31T10:21:18.626Z,196.88
2018-03-31T10:22:18.605Z,202.50
2018-03-31T10:23:18.577Z,213.75
2018-03-31T10:24:18.552Z,219.38
2018-03-31T10:25:18.529Z,219.38
2018-03-31T10:26:18.507Z,225.00
2018-03-31T10:27:18.481Z,219.38
2018-03-31T10:28:18.458Z,213.75
2018-03-31T10:29:18.445Z,208.13
2018-03-31T10:30:18.409Z,196.88
2018-03-31T10:31:18.385Z,185.63
2018-03-31T10:32:18.363Z,180.00
2018-03-31T10:33:18.339Z,168.75
2018-03-31T10:34:18.314Z,163.13
2018-03-31T10:35:18.366Z,157.50
2018-03-31T10:36:18.267Z,151.88
2018-03-31T10:37:18.244Z,151.88
2018-03-31T10:38:18.220Z,151.88
2018-03-31T10:39:18.196Z,151.88
2018-03-31T10:40:18.172Z,151.88
2018-03-31T10:41:18.147Z,151.88
2018-03-31T10:42:18.131Z,151.88
2018-03-31T10:43:18.100Z,157.50
2018-03-31T10:44:18.075Z,163.13
2018-03-31T10:45:18.053Z,168.75
2018-03-31T10:46:18.029Z,174.38
2018-03-31T10:47:18.003Z,180.00
2018-03-31T10:48:17.978Z,185.63
2018-03-31T10:49:17.957Z,185.63
2018-03-31T10:50:18.683Z,191.25
2018-03-31T10:51:17.908Z,191.25
2018-03-31T10:52:17.891Z,196.88
2018-03-31T10:53:17.860Z,202.50
2018-03-31T10:54:17.837Z,208.13
2018-03-31T10:55:17.813Z,213.75
2018-03-31T10:56:17.788Z,219.38
2018-03-31T10:57:17.763Z,219.38
2018-03-31T10:58:17.739Z,219.38
2018-03-31T10:59:17.715Z,213.75
2018-03-31T11:00:17.703Z,208.13
2018-03-31T11:01:17.667Z,208.13
2018-03-31T11:02:17.644Z,208.13
2018-03-31T11:03:17.618Z,213.75
2018-03-31T11:04:17.596Z,213.75
2018-03-31T11:05:17.571Z,219.38
2018-03-31T11:06:17.548Z,225.00
2018-03-31T11:07:17.528Z,230.63
2018-03-31T11:08:17.500Z,230.63
2018-03-31T11:09:17.478Z,236.25
2018-03-31T11:10:17.451Z,236.25
2018-03-31T11:11:17.427Z,236.25
2018-03-31T11:12:17.421Z,241.88
2018-03-31T11:13:17.379Z,253.13
2018-03-31T11:14:17.354Z,264.38
2018-03-31T11:15:17.329Z,281.25
2018-03-31T11:16:17.306Z,298.13
2018-03-31T11:17:17.283Z,320.63
2018-03-31T11:18:17.260Z,337.50
2018-03-31T11:19:17.233Z,354.38
2018-03-31T11:20:17.211Z,371.25
2018-03-31T11:21:17.186Z,388.13
2018-03-31T11:22:17.163Z,388.13
2018-03-31T11:23:17.889Z,382.50
2018-03-31T11:24:17.113Z,376.88
2018-03-31T11:25:17.091Z,365.63
2018-03-31T11:26:17.068Z,360.00
2018-03-31T11:27:17.043Z,354.38
2018-03-31T11:28:17.020Z,348.75
2018-03-31T11:29:16.995Z,343.13
2018-03-31T11:30:16.977Z,326.25
2018-03-31T11:31:16.947Z,320.63
2018-03-31T11:32:16.964Z,309.38
2018-03-31T11:33:16.901Z,303.75
2018-03-31T11:34:16.878Z,292.50
2018-03-31T11:35:16.854Z,292.50
2018-03-31T11:36:16.831Z,292.50
2018-03-31T11:37:16.811Z,298.13
2018-03-31T11:38:16.783Z,303.75
2018-03-31T11:39:16.758Z,309.38
2018-03-31T11:40:16.736Z,309.38
2018-03-31T11:41:16.711Z,309.38
2018-03-31T11:42:16.689Z,315.00
2018-03-31T11:43:16.670Z,320.63
2018-03-31T11:44:16.641Z,315.00
2018-03-31T11:45:16.619Z,309.38
2018-03-31T11:46:16.597Z,309.38
2018-03-31T11:47:16.572Z,309.38
2018-03-31T11:48:16.600Z,303.75
2018-03-31T11:49:16.533Z,292.50
2018-03-31T11:50:16.503Z,286.88
2018-03-31T11:51:16.479Z,281.25
2018-03-31T11:52:16.458Z,275.63
2018-03-31T11:53:16.433Z,275.63
2018-03-31T11:54:16.409Z,281.25
2018-03-31T11:55:16.392Z,281.25
2018-03-31T11:56:16.363Z,270.00
2018-03-31T11:57:16.341Z,258.75
2018-03-31T11:58:16.321Z,247.50
2018-03-31T11:59:16.295Z,236.25
2018-03-31T12:00:16.270Z,225.00
2018-03-31T12:01:17.003Z,225.00
2018-03-31T12:02:16.224Z,219.38
2018-03-31T12:03:16.199Z,219.38
2018-03-31T12:04:16.176Z,213.75
2018-03-31T12:05:16.153Z,213.75
2018-03-31T12:06:16.129Z,219.38
2018-03-31T12:07:16.106Z,219.38
2018-03-31T12:08:16.085Z,219.38
2018-03-31T12:09:16.059Z,219.38
2018-03-31T12:10:16.035Z,219.38
2018-03-31T12:11:16.012Z,219.38
2018-03-31T12:12:18.240Z,225.00
2018-03-31T12:13:15.965Z,225.00
2018-03-31T12:14:15.940Z,230.63
2018-03-31T12:15:15.916Z,236.25
2018-03-31T12:16:15.893Z,253.13
2018-03-31T12:17:15.869Z,258.75
2018-03-31T12:18:15.846Z,270.00
2018-03-31T12:19:15.821Z,281.25
2018-03-31T12:20:15.797Z,286.88
2018-03-31T12:21:15.776Z,292.50
2018-03-31T12:22:15.752Z,298.13
2018-03-31T12:23:15.726Z,298.13
2018-03-31T12:24:15.703Z,292.50
2018-03-31T12:25:15.680Z,292.50
2018-03-31T12:26:15.658Z,286.88
2018-03-31T12:27:15.632Z,286.88
2018-03-31T12:28:15.609Z,286.88
2018-03-31T12:29:16.337Z,286.88
2018-03-31T12:30:15.562Z,292.50
2018-03-31T12:31:15.537Z,298.13
2018-03-31T12:32:15.514Z,303.75
2018-03-31T12:33:15.492Z,303.75
2018-03-31T12:34:15.469Z,303.75
2018-03-31T12:35:15.445Z,298.13
2018-03-31T12:36:15.420Z,292.50
2018-03-31T12:37:15.403Z,292.50
2018-03-31T12:38:15.375Z,292.50
2018-03-31T12:39:15.352Z,292.50
2018-03-31T12:40:15.326Z,286.88
2018-03-31T12:41:15.309Z,286.88
2018-03-31T12:42:15.280Z,286.88
2018-03-31T12:43:15.256Z,286.88
2018-03-31T12:44:15.233Z,281.25
2018-03-31T12:45:15.210Z,281.25
2018-03-31T12:46:15.187Z,281.25
2018-03-31T12:47:15.161Z,275.63
2018-03-31T12:48:15.138Z,275.63
2018-03-31T12:49:15.114Z,275.63
2018-03-31T12:50:15.093Z,275.63
2018-03-31T12:51:15.066Z,292.50
2018-03-31T12:52:15.057Z,298.13
2018-03-31T12:53:15.021Z,303.75